sensor_id;sensor_type;location;lat;lon;timestamp;temperature;humidity
74901;DHT22;63461;51.416;6.758;2024-02-16T00:01:37;13.00;99.90
74901;DHT22;63461;51.416;6.758;2024-02-16T00:04:03;13.00;99.90
74901;DHT22;63461;51.416;6.758;2024-02-16T00:06:29;13.00;99.90
74901;DHT22;63461;51.416;6.758;2024-02-16T00:08:55;13.00;99.90
74901;DHT22;63461;51.416;6.758;2024-02-16T00:11:20;13.00;99.90
74901;DHT22;63461;51.416;6.758;2024-02-16T00:13:47;13.00;99.90
74901;DHT22;63461;51.416;6.758;2024-02-16T00:16:13;13.00;99.90
74901;DHT22;63461;51.416;6.758;2024-02-16T00:18:39;13.00;99.90
74901;DHT22;63461;51.416;6.758;2024-02-16T00:21:04;13.00;99.90
74901;DHT22;63461;51.416;6.758;2024-02-16T00:23:31;13.00;99.90
74901;DHT22;63461;51.416;6.758;2024-02-16T00:25:59;13.00;99.90
74901;DHT22;63461;51.416;6.758;2024-02-16T00:28:24;13.10;99.90
74901;DHT22;63461;51.416;6.758;2024-02-16T00:30:50;13.00;99.90
74901;DHT22;63461;51.416;6.758;2024-02-16T00:33:16;13.10;99.90
74901;DHT22;63461;51.416;6.758;2024-02-16T00:35:44;13.10;99.90
74901;DHT22;63461;51.416;6.758;2024-02-16T00:38:13;13.10;99.90
74901;DHT22;63461;51.416;6.758;2024-02-16T00:40:39;13.00;99.90
74901;DHT22;63461;51.416;6.758;2024-02-16T00:43:09;13.00;99.90
74901;DHT22;63461;51.416;6.758;2024-02-16T00:45:35;13.00;99.90
74901;DHT22;63461;51.416;6.758;2024-02-16T00:48:01;13.00;99.90
74901;DHT22;63461;51.416;6.758;2024-02-16T00:50:27;13.00;99.90
74901;DHT22;63461;51.416;6.758;2024-02-16T00:52:53;13.00;99.90
74901;DHT22;63461;51.416;6.758;2024-02-16T00:55:19;13.00;99.90
74901;DHT22;63461;51.416;6.758;2024-02-16T00:57:45;13.00;99.90
74901;DHT22;63461;51.416;6.758;2024-02-16T01:00:12;12.90;99.90
74901;DHT22;63461;51.416;6.758;2024-02-16T01:02:38;13.00;99.90
74901;DHT22;63461;51.416;6.758;2024-02-16T01:05:04;13.00;99.90
74901;DHT22;63461;51.416;6.758;2024-02-16T01:07:30;12.90;99.90
74901;DHT22;63461;51.416;6.758;2024-02-16T01:09:57;13.00;99.90
74901;DHT22;63461;51.416;6.758;2024-02-16T01:12:23;12.90;99.90
74901;DHT22;63461;51.416;6.758;2024-02-16T01:14:49;12.90;99.90
74901;DHT22;63461;51.416;6.758;2024-02-16T01:17:15;12.90;99.90
74901;DHT22;63461;51.416;6.758;2024-02-16T01:19:41;12.90;99.90
74901;DHT22;63461;51.416;6.758;2024-02-16T01:22:07;12.90;99.90
74901;DHT22;63461;51.416;6.758;2024-02-16T01:24:32;13.00;99.90
74901;DHT22;63461;51.416;6.758;2024-02-16T01:26:58;13.00;99.90
74901;DHT22;63461;51.416;6.758;2024-02-16T01:29:24;13.00;99.90
74901;DHT22;63461;51.416;6.758;2024-02-16T01:31:50;13.00;99.90
74901;DHT22;63461;51.416;6.758;2024-02-16T01:34:18;13.00;99.90
74901;DHT22;63461;51.416;6.758;2024-02-16T01:36:44;13.00;99.90
74901;DHT22;63461;51.416;6.758;2024-02-16T01:39:09;13.00;99.90
74901;DHT22;63461;51.416;6.758;2024-02-16T01:41:38;13.00;99.90
74901;DHT22;63461;51.416;6.758;2024-02-16T01:44:05;13.10;99.90
74901;DHT22;63461;51.416;6.758;2024-02-16T01:46:33;13.00;99.90
74901;DHT22;63461;51.416;6.758;2024-02-16T01:48:59;13.10;99.90
74901;DHT22;63461;51.416;6.758;2024-02-16T01:51:25;13.10;99.90
74901;DHT22;63461;51.416;6.758;2024-02-16T01:53:52;13.10;99.90
74901;DHT22;63461;51.416;6.758;2024-02-16T01:56:18;13.10;99.90
74901;DHT22;63461;51.416;6.758;2024-02-16T01:58:46;13.10;99.90
74901;DHT22;63461;51.416;6.758;2024-02-16T02:01:14;13.10;99.90
74901;DHT22;63461;51.416;6.758;2024-02-16T02:03:40;13.00;99.90
74901;DHT22;63461;51.416;6.758;2024-02-16T02:06:06;13.10;99.90
74901;DHT22;63461;51.416;6.758;2024-02-16T02:08:31;13.10;99.90
74901;DHT22;63461;51.416;6.758;2024-02-16T02:10:58;13.10;99.90
74901;DHT22;63461;51.416;6.758;2024-02-16T02:13:24;13.00;99.90
74901;DHT22;63461;51.416;6.758;2024-02-16T02:15:50;13.10;99.90
74901;DHT22;63461;51.416;6.758;2024-02-16T02:18:20;13.10;99.90
74901;DHT22;63461;51.416;6.758;2024-02-16T02:20:46;13.10;99.90
74901;DHT22;63461;51.416;6.758;2024-02-16T02:23:14;13.00;99.90
74901;DHT22;63461;51.416;6.758;2024-02-16T02:25:40;13.10;99.90
74901;DHT22;63461;51.416;6.758;2024-02-16T02:28:06;13.10;99.90
74901;DHT22;63461;51.416;6.758;2024-02-16T02:30:32;13.10;99.90
74901;DHT22;63461;51.416;6.758;2024-02-16T02:32:58;13.00;99.90
74901;DHT22;63461;51.416;6.758;2024-02-16T02:35:24;13.00;99.90
74901;DHT22;63461;51.416;6.758;2024-02-16T02:37:50;13.00;99.90
74901;DHT22;63461;51.416;6.758;2024-02-16T02:40:16;13.00;99.90
74901;DHT22;63461;51.416;6.758;2024-02-16T02:42:42;12.90;99.90
74901;DHT22;63461;51.416;6.758;2024-02-16T02:45:08;12.90;99.90
74901;DHT22;63461;51.416;6.758;2024-02-16T02:47:34;12.90;99.90
74901;DHT22;63461;51.416;6.758;2024-02-16T02:50:00;12.90;99.90
74901;DHT22;63461;51.416;6.758;2024-02-16T02:52:26;12.90;99.90
74901;DHT22;63461;51.416;6.758;2024-02-16T02:54:52;12.90;99.90
74901;DHT22;63461;51.416;6.758;2024-02-16T02:57:17;12.90;99.90
74901;DHT22;63461;51.416;6.758;2024-02-16T02:59:43;13.00;99.90
74901;DHT22;63461;51.416;6.758;2024-02-16T03:02:11;13.00;99.90
74901;DHT22;63461;51.416;6.758;2024-02-16T03:04:37;13.00;99.90
74901;DHT22;63461;51.416;6.758;2024-02-16T03:07:02;13.00;99.90
74901;DHT22;63461;51.416;6.758;2024-02-16T03:09:28;13.00;99.90
74901;DHT22;63461;51.416;6.758;2024-02-16T03:11:54;13.00;99.90
74901;DHT22;63461;51.416;6.758;2024-02-16T03:14:20;13.00;99.90
74901;DHT22;63461;51.416;6.758;2024-02-16T03:16:46;13.00;99.90
74901;DHT22;63461;51.416;6.758;2024-02-16T03:19:12;12.90;99.90
74901;DHT22;63461;51.416;6.758;2024-02-16T03:21:38;12.90;99.90
74901;DHT22;63461;51.416;6.758;2024-02-16T03:24:04;12.90;99.90
74901;DHT22;63461;51.416;6.758;2024-02-16T03:26:30;12.90;99.90
74901;DHT22;63461;51.416;6.758;2024-02-16T03:28:58;12.90;99.90
74901;DHT22;63461;51.416;6.758;2024-02-16T03:31:24;12.90;99.90
74901;DHT22;63461;51.416;6.758;2024-02-16T03:33:51;12.90;99.90
74901;DHT22;63461;51.416;6.758;2024-02-16T03:36:18;12.90;99.90
74901;DHT22;63461;51.416;6.758;2024-02-16T03:38:45;12.90;99.90
74901;DHT22;63461;51.416;6.758;2024-02-16T03:41:13;12.90;99.90
74901;DHT22;63461;51.416;6.758;2024-02-16T03:43:40;12.90;99.90
74901;DHT22;63461;51.416;6.758;2024-02-16T03:46:06;13.00;99.90
74901;DHT22;63461;51.416;6.758;2024-02-16T03:48:32;13.00;99.90
74901;DHT22;63461;51.416;6.758;2024-02-16T03:50:57;13.00;99.90
74901;DHT22;63461;51.416;6.758;2024-02-16T03:53:23;13.00;99.90
74901;DHT22;63461;51.416;6.758;2024-02-16T03:55:52;13.00;99.90
74901;DHT22;63461;51.416;6.758;2024-02-16T03:58:17;13.00;99.90
74901;DHT22;63461;51.416;6.758;2024-02-16T04:00:43;13.00;99.90
74901;DHT22;63461;51.416;6.758;2024-02-16T04:03:09;13.00;99.90
74901;DHT22;63461;51.416;6.758;2024-02-16T04:05:38;13.00;99.90
74901;DHT22;63461;51.416;6.758;2024-02-16T04:08:04;13.00;99.90
74901;DHT22;63461;51.416;6.758;2024-02-16T04:10:30;13.00;99.90
74901;DHT22;63461;51.416;6.758;2024-02-16T04:12:56;12.90;99.90
74901;DHT22;63461;51.416;6.758;2024-02-16T04:15:22;13.00;99.90
74901;DHT22;63461;51.416;6.758;2024-02-16T04:17:48;12.90;99.90
74901;DHT22;63461;51.416;6.758;2024-02-16T04:20:16;12.90;99.90
74901;DHT22;63461;51.416;6.758;2024-02-16T04:22:42;12.90;99.90
74901;DHT22;63461;51.416;6.758;2024-02-16T04:25:08;13.00;99.90
74901;DHT22;63461;51.416;6.758;2024-02-16T04:27:37;13.00;99.90
74901;DHT22;63461;51.416;6.758;2024-02-16T04:30:04;12.90;99.90
74901;DHT22;63461;51.416;6.758;2024-02-16T04:32:31;12.90;99.90
74901;DHT22;63461;51.416;6.758;2024-02-16T04:34:57;12.80;99.90
74901;DHT22;63461;51.416;6.758;2024-02-16T04:37:26;12.80;99.90
74901;DHT22;63461;51.416;6.758;2024-02-16T04:39:52;12.80;99.90
74901;DHT22;63461;51.416;6.758;2024-02-16T04:42:18;12.80;99.90
74901;DHT22;63461;51.416;6.758;2024-02-16T04:44:46;12.80;99.90
74901;DHT22;63461;51.416;6.758;2024-02-16T04:47:14;12.80;99.90
74901;DHT22;63461;51.416;6.758;2024-02-16T04:49:43;12.80;99.90
74901;DHT22;63461;51.416;6.758;2024-02-16T04:52:09;12.80;99.90
74901;DHT22;63461;51.416;6.758;2024-02-16T04:54:37;12.80;99.90
74901;DHT22;63461;51.416;6.758;2024-02-16T04:57:06;12.70;99.90
74901;DHT22;63461;51.416;6.758;2024-02-16T04:59:31;12.70;99.90
74901;DHT22;63461;51.416;6.758;2024-02-16T05:01:57;12.80;99.90
74901;DHT22;63461;51.416;6.758;2024-02-16T05:04:23;12.80;99.90
74901;DHT22;63461;51.416;6.758;2024-02-16T05:06:49;12.80;99.90
74901;DHT22;63461;51.416;6.758;2024-02-16T05:09:18;12.70;99.90
74901;DHT22;63461;51.416;6.758;2024-02-16T05:11:45;12.80;99.90
74901;DHT22;63461;51.416;6.758;2024-02-16T05:14:11;12.70;99.90
74901;DHT22;63461;51.416;6.758;2024-02-16T05:16:37;12.70;99.90
74901;DHT22;63461;51.416;6.758;2024-02-16T05:19:08;12.70;99.90
74901;DHT22;63461;51.416;6.758;2024-02-16T05:21:33;12.70;99.90
74901;DHT22;63461;51.416;6.758;2024-02-16T05:24:01;12.70;99.90
74901;DHT22;63461;51.416;6.758;2024-02-16T05:26:27;12.70;99.90
74901;DHT22;63461;51.416;6.758;2024-02-16T05:28:53;12.70;99.90
74901;DHT22;63461;51.416;6.758;2024-02-16T05:31:19;12.60;99.90
74901;DHT22;63461;51.416;6.758;2024-02-16T05:33:47;12.60;99.90
74901;DHT22;63461;51.416;6.758;2024-02-16T05:36:20;12.60;99.90
74901;DHT22;63461;51.416;6.758;2024-02-16T05:38:50;12.60;99.90
74901;DHT22;63461;51.416;6.758;2024-02-16T05:41:17;12.60;99.90
74901;DHT22;63461;51.416;6.758;2024-02-16T05:43:44;12.50;99.90
74901;DHT22;63461;51.416;6.758;2024-02-16T05:46:14;12.50;99.90
74901;DHT22;63461;51.416;6.758;2024-02-16T05:48:40;12.50;99.90
74901;DHT22;63461;51.416;6.758;2024-02-16T05:51:06;12.50;99.90
74901;DHT22;63461;51.416;6.758;2024-02-16T05:53:32;12.50;99.90
74901;DHT22;63461;51.416;6.758;2024-02-16T05:55:59;12.50;99.90
74901;DHT22;63461;51.416;6.758;2024-02-16T05:58:25;12.50;99.90
74901;DHT22;63461;51.416;6.758;2024-02-16T06:00:51;12.50;99.90
74901;DHT22;63461;51.416;6.758;2024-02-16T06:03:17;12.50;99.90
74901;DHT22;63461;51.416;6.758;2024-02-16T06:05:43;12.50;99.90
74901;DHT22;63461;51.416;6.758;2024-02-16T06:08:12;12.50;99.90
74901;DHT22;63461;51.416;6.758;2024-02-16T06:10:39;12.60;99.90
74901;DHT22;63461;51.416;6.758;2024-02-16T06:13:05;12.60;99.90
74901;DHT22;63461;51.416;6.758;2024-02-16T06:15:32;12.60;99.90
74901;DHT22;63461;51.416;6.758;2024-02-16T06:18:01;12.60;99.90
74901;DHT22;63461;51.416;6.758;2024-02-16T06:20:27;12.70;99.90
74901;DHT22;63461;51.416;6.758;2024-02-16T06:22:53;12.70;99.90
74901;DHT22;63461;51.416;6.758;2024-02-16T06:25:19;12.70;99.90
74901;DHT22;63461;51.416;6.758;2024-02-16T06:27:44;12.70;99.90
74901;DHT22;63461;51.416;6.758;2024-02-16T06:30:11;12.70;99.90
74901;DHT22;63461;51.416;6.758;2024-02-16T06:32:41;12.70;99.90
74901;DHT22;63461;51.416;6.758;2024-02-16T06:35:08;12.70;99.90
74901;DHT22;63461;51.416;6.758;2024-02-16T06:37:34;12.70;99.90
74901;DHT22;63461;51.416;6.758;2024-02-16T06:40:00;12.70;99.90
74901;DHT22;63461;51.416;6.758;2024-02-16T06:42:26;12.70;99.90
74901;DHT22;63461;51.416;6.758;2024-02-16T06:44:52;12.70;99.90
74901;DHT22;63461;51.416;6.758;2024-02-16T06:47:17;12.70;99.90
74901;DHT22;63461;51.416;6.758;2024-02-16T06:49:44;12.70;99.90
74901;DHT22;63461;51.416;6.758;2024-02-16T06:52:11;12.70;99.90
74901;DHT22;63461;51.416;6.758;2024-02-16T06:54:38;12.70;99.90
74901;DHT22;63461;51.416;6.758;2024-02-16T06:57:04;12.70;99.90
74901;DHT22;63461;51.416;6.758;2024-02-16T06:59:29;12.70;99.90
74901;DHT22;63461;51.416;6.758;2024-02-16T07:01:55;12.70;99.90
74901;DHT22;63461;51.416;6.758;2024-02-16T07:04:21;12.70;99.90
74901;DHT22;63461;51.416;6.758;2024-02-16T07:06:47;12.70;99.90
74901;DHT22;63461;51.416;6.758;2024-02-16T07:09:12;12.80;99.90
74901;DHT22;63461;51.416;6.758;2024-02-16T07:11:41;12.70;99.90
74901;DHT22;63461;51.416;6.758;2024-02-16T07:14:08;12.80;99.90
74901;DHT22;63461;51.416;6.758;2024-02-16T07:16:34;12.70;99.90
74901;DHT22;63461;51.416;6.758;2024-02-16T07:19:00;12.70;99.90
74901;DHT22;63461;51.416;6.758;2024-02-16T07:21:26;12.70;99.90
74901;DHT22;63461;51.416;6.758;2024-02-16T07:23:52;12.80;99.90
74901;DHT22;63461;51.416;6.758;2024-02-16T07:26:18;12.80;99.90
74901;DHT22;63461;51.416;6.758;2024-02-16T07:28:44;12.80;99.90
74901;DHT22;63461;51.416;6.758;2024-02-16T07:31:10;12.90;99.90
74901;DHT22;63461;51.416;6.758;2024-02-16T07:33:36;12.90;99.90
74901;DHT22;63461;51.416;6.758;2024-02-16T07:36:03;12.90;99.90
74901;DHT22;63461;51.416;6.758;2024-02-16T07:38:28;12.90;99.90
74901;DHT22;63461;51.416;6.758;2024-02-16T07:40:55;12.90;99.90
74901;DHT22;63461;51.416;6.758;2024-02-16T07:43:21;13.00;99.90
74901;DHT22;63461;51.416;6.758;2024-02-16T07:45:50;13.00;99.90
74901;DHT22;63461;51.416;6.758;2024-02-16T07:48:16;13.10;99.90
74901;DHT22;63461;51.416;6.758;2024-02-16T07:50:41;13.10;99.90
74901;DHT22;63461;51.416;6.758;2024-02-16T07:53:07;13.10;99.90
74901;DHT22;63461;51.416;6.758;2024-02-16T07:55:35;13.20;99.90
74901;DHT22;63461;51.416;6.758;2024-02-16T07:58:01;13.20;99.90
74901;DHT22;63461;51.416;6.758;2024-02-16T08:00:26;13.30;99.90
74901;DHT22;63461;51.416;6.758;2024-02-16T08:02:53;13.30;99.90
74901;DHT22;63461;51.416;6.758;2024-02-16T08:05:19;13.30;99.90
74901;DHT22;63461;51.416;6.758;2024-02-16T08:07:46;13.30;99.90
74901;DHT22;63461;51.416;6.758;2024-02-16T08:10:13;13.30;99.90
74901;DHT22;63461;51.416;6.758;2024-02-16T08:12:39;13.40;99.90
74901;DHT22;63461;51.416;6.758;2024-02-16T08:15:06;13.40;99.90
74901;DHT22;63461;51.416;6.758;2024-02-16T08:17:36;13.40;99.90
74901;DHT22;63461;51.416;6.758;2024-02-16T08:20:03;13.40;99.90
74901;DHT22;63461;51.416;6.758;2024-02-16T08:22:29;13.50;99.90
74901;DHT22;63461;51.416;6.758;2024-02-16T08:24:55;13.50;99.90
74901;DHT22;63461;51.416;6.758;2024-02-16T08:27:20;13.60;99.90
74901;DHT22;63461;51.416;6.758;2024-02-16T08:29:46;13.60;99.90
74901;DHT22;63461;51.416;6.758;2024-02-16T08:32:12;13.70;99.90
74901;DHT22;63461;51.416;6.758;2024-02-16T08:34:38;13.70;99.90
74901;DHT22;63461;51.416;6.758;2024-02-16T08:37:05;13.70;99.90
74901;DHT22;63461;51.416;6.758;2024-02-16T08:39:31;15.00;99.90
74901;DHT22;63461;51.416;6.758;2024-02-16T08:41:57;14.60;99.90
74901;DHT22;63461;51.416;6.758;2024-02-16T08:44:24;14.20;99.90
74901;DHT22;63461;51.416;6.758;2024-02-16T08:46:50;14.00;99.90
74901;DHT22;63461;51.416;6.758;2024-02-16T08:49:16;14.00;99.90
74901;DHT22;63461;51.416;6.758;2024-02-16T08:51:47;14.00;99.90
74901;DHT22;63461;51.416;6.758;2024-02-16T08:54:13;14.00;99.90
74901;DHT22;63461;51.416;6.758;2024-02-16T08:56:38;14.00;99.90
74901;DHT22;63461;51.416;6.758;2024-02-16T08:59:05;14.00;99.90
74901;DHT22;63461;51.416;6.758;2024-02-16T09:01:35;14.10;99.90
74901;DHT22;63461;51.416;6.758;2024-02-16T09:04:02;14.10;99.90
74901;DHT22;63461;51.416;6.758;2024-02-16T09:06:28;14.10;99.90
74901;DHT22;63461;51.416;6.758;2024-02-16T09:08:54;14.10;99.90
74901;DHT22;63461;51.416;6.758;2024-02-16T09:11:20;14.10;99.90
74901;DHT22;63461;51.416;6.758;2024-02-16T09:13:46;14.10;99.90
74901;DHT22;63461;51.416;6.758;2024-02-16T09:16:12;14.20;99.90
74901;DHT22;63461;51.416;6.758;2024-02-16T09:18:38;14.20;99.90
74901;DHT22;63461;51.416;6.758;2024-02-16T09:21:05;14.20;99.90
74901;DHT22;63461;51.416;6.758;2024-02-16T09:23:32;14.30;99.90
74901;DHT22;63461;51.416;6.758;2024-02-16T09:26:01;14.30;99.90
74901;DHT22;63461;51.416;6.758;2024-02-16T09:28:30;14.30;99.90
74901;DHT22;63461;51.416;6.758;2024-02-16T09:30:57;14.40;99.90
74901;DHT22;63461;51.416;6.758;2024-02-16T09:33:24;14.40;99.90
74901;DHT22;63461;51.416;6.758;2024-02-16T09:35:50;14.50;99.90
74901;DHT22;63461;51.416;6.758;2024-02-16T09:38:16;14.50;99.90
74901;DHT22;63461;51.416;6.758;2024-02-16T09:40:42;14.60;99.90
74901;DHT22;63461;51.416;6.758;2024-02-16T09:43:08;14.60;99.90
74901;DHT22;63461;51.416;6.758;2024-02-16T09:45:34;14.70;99.90
74901;DHT22;63461;51.416;6.758;2024-02-16T09:48:02;14.70;99.90
74901;DHT22;63461;51.416;6.758;2024-02-16T09:50:27;14.70;99.90
74901;DHT22;63461;51.416;6.758;2024-02-16T09:52:55;14.70;99.90
74901;DHT22;63461;51.416;6.758;2024-02-16T09:55:21;14.80;99.90
74901;DHT22;63461;51.416;6.758;2024-02-16T09:57:58;14.80;99.90
74901;DHT22;63461;51.416;6.758;2024-02-16T10:00:25;14.80;99.90
74901;DHT22;63461;51.416;6.758;2024-02-16T10:02:50;14.90;99.90
74901;DHT22;63461;51.416;6.758;2024-02-16T10:05:19;14.90;99.90
74901;DHT22;63461;51.416;6.758;2024-02-16T10:07:45;14.90;99.90
74901;DHT22;63461;51.416;6.758;2024-02-16T10:10:20;14.90;99.90
74901;DHT22;63461;51.416;6.758;2024-02-16T10:12:47;14.90;99.90
74901;DHT22;63461;51.416;6.758;2024-02-16T10:15:22;14.90;99.90
74901;DHT22;63461;51.416;6.758;2024-02-16T10:18:05;14.90;99.90
74901;DHT22;63461;51.416;6.758;2024-02-16T10:20:35;14.90;99.90
74901;DHT22;63461;51.416;6.758;2024-02-16T10:23:05;14.80;99.90
74901;DHT22;63461;51.416;6.758;2024-02-16T10:25:32;14.80;99.90
74901;DHT22;63461;51.416;6.758;2024-02-16T10:27:58;14.90;99.90
74901;DHT22;63461;51.416;6.758;2024-02-16T10:30:29;14.90;99.90
74901;DHT22;63461;51.416;6.758;2024-02-16T10:32:57;14.90;99.90
74901;DHT22;63461;51.416;6.758;2024-02-16T10:35:25;15.00;99.90
74901;DHT22;63461;51.416;6.758;2024-02-16T10:37:52;15.00;99.90
74901;DHT22;63461;51.416;6.758;2024-02-16T10:40:19;15.00;99.90
74901;DHT22;63461;51.416;6.758;2024-02-16T10:42:46;15.00;99.90
74901;DHT22;63461;51.416;6.758;2024-02-16T10:45:13;14.90;99.90
74901;DHT22;63461;51.416;6.758;2024-02-16T10:47:39;14.90;99.90
74901;DHT22;63461;51.416;6.758;2024-02-16T10:50:08;14.90;99.90
74901;DHT22;63461;51.416;6.758;2024-02-16T10:52:40;14.90;99.90
74901;DHT22;63461;51.416;6.758;2024-02-16T10:55:10;14.90;99.90
74901;DHT22;63461;51.416;6.758;2024-02-16T10:57:40;14.90;99.90
74901;DHT22;63461;51.416;6.758;2024-02-16T11:00:09;14.80;99.90
74901;DHT22;63461;51.416;6.758;2024-02-16T11:02:55;14.80;99.90
74901;DHT22;63461;51.416;6.758;2024-02-16T11:05:35;14.90;99.90
74901;DHT22;63461;51.416;6.758;2024-02-16T11:08:02;14.80;99.90
74901;DHT22;63461;51.416;6.758;2024-02-16T11:10:29;14.80;99.90
74901;DHT22;63461;51.416;6.758;2024-02-16T11:12:55;14.80;99.90
74901;DHT22;63461;51.416;6.758;2024-02-16T11:15:30;14.80;99.90
74901;DHT22;63461;51.416;6.758;2024-02-16T11:17:56;14.80;99.90
74901;DHT22;63461;51.416;6.758;2024-02-16T11:20:26;14.80;99.90
74901;DHT22;63461;51.416;6.758;2024-02-16T11:22:52;14.70;99.90
74901;DHT22;63461;51.416;6.758;2024-02-16T11:25:31;14.70;99.90
74901;DHT22;63461;51.416;6.758;2024-02-16T11:27:58;14.70;99.90
74901;DHT22;63461;51.416;6.758;2024-02-16T11:30:24;14.70;99.90
74901;DHT22;63461;51.416;6.758;2024-02-16T11:32:51;14.70;99.90
74901;DHT22;63461;51.416;6.758;2024-02-16T11:35:17;14.70;99.90
74901;DHT22;63461;51.416;6.758;2024-02-16T11:37:46;14.70;99.90
74901;DHT22;63461;51.416;6.758;2024-02-16T11:40:15;14.70;99.90
74901;DHT22;63461;51.416;6.758;2024-02-16T11:42:41;14.70;99.90
74901;DHT22;63461;51.416;6.758;2024-02-16T11:45:12;14.70;99.90
74901;DHT22;63461;51.416;6.758;2024-02-16T11:47:38;14.70;99.90
74901;DHT22;63461;51.416;6.758;2024-02-16T11:50:06;14.70;99.90
74901;DHT22;63461;51.416;6.758;2024-02-16T11:52:33;14.70;99.90
74901;DHT22;63461;51.416;6.758;2024-02-16T11:55:00;14.70;99.90
74901;DHT22;63461;51.416;6.758;2024-02-16T11:57:27;14.70;99.90
74901;DHT22;63461;51.416;6.758;2024-02-16T11:59:54;14.70;99.90
74901;DHT22;63461;51.416;6.758;2024-02-16T12:02:20;14.70;99.90
74901;DHT22;63461;51.416;6.758;2024-02-16T12:04:59;14.70;99.90
74901;DHT22;63461;51.416;6.758;2024-02-16T12:07:26;14.70;99.90
74901;DHT22;63461;51.416;6.758;2024-02-16T12:10:00;14.70;99.90
74901;DHT22;63461;51.416;6.758;2024-02-16T12:12:26;14.70;99.90
74901;DHT22;63461;51.416;6.758;2024-02-16T12:14:54;14.70;99.90
74901;DHT22;63461;51.416;6.758;2024-02-16T12:17:20;14.70;99.90
74901;DHT22;63461;51.416;6.758;2024-02-16T12:19:47;14.70;99.90
74901;DHT22;63461;51.416;6.758;2024-02-16T12:22:21;14.60;99.90
74901;DHT22;63461;51.416;6.758;2024-02-16T12:24:48;14.70;99.90
74901;DHT22;63461;51.416;6.758;2024-02-16T12:27:15;14.70;99.90
74901;DHT22;63461;51.416;6.758;2024-02-16T12:29:42;14.60;99.90
74901;DHT22;63461;51.416;6.758;2024-02-16T12:32:08;14.70;99.90
74901;DHT22;63461;51.416;6.758;2024-02-16T12:34:36;14.70;99.90
74901;DHT22;63461;51.416;6.758;2024-02-16T12:37:06;14.70;99.90
74901;DHT22;63461;51.416;6.758;2024-02-16T12:39:38;14.70;99.90
74901;DHT22;63461;51.416;6.758;2024-02-16T12:42:04;14.60;99.90
74901;DHT22;63461;51.416;6.758;2024-02-16T12:44:30;14.60;99.90
74901;DHT22;63461;51.416;6.758;2024-02-16T12:46:56;14.60;99.90
74901;DHT22;63461;51.416;6.758;2024-02-16T12:49:22;14.60;99.90
74901;DHT22;63461;51.416;6.758;2024-02-16T12:51:53;14.60;99.90
74901;DHT22;63461;51.416;6.758;2024-02-16T12:54:20;14.60;99.90
74901;DHT22;63461;51.416;6.758;2024-02-16T12:56:46;14.60;99.90
74901;DHT22;63461;51.416;6.758;2024-02-16T12:59:16;14.50;99.90
74901;DHT22;63461;51.416;6.758;2024-02-16T13:01:42;14.50;99.90
74901;DHT22;63461;51.416;6.758;2024-02-16T13:04:08;14.50;99.90
74901;DHT22;63461;51.416;6.758;2024-02-16T13:06:34;14.50;99.90
74901;DHT22;63461;51.416;6.758;2024-02-16T13:09:00;14.50;99.90
74901;DHT22;63461;51.416;6.758;2024-02-16T13:11:28;14.50;99.90
74901;DHT22;63461;51.416;6.758;2024-02-16T13:13:54;14.50;99.90
74901;DHT22;63461;51.416;6.758;2024-02-16T13:16:21;14.40;99.90
74901;DHT22;63461;51.416;6.758;2024-02-16T13:18:50;14.40;99.90
74901;DHT22;63461;51.416;6.758;2024-02-16T13:21:19;14.40;99.90
74901;DHT22;63461;51.416;6.758;2024-02-16T13:23:47;14.40;99.90
74901;DHT22;63461;51.416;6.758;2024-02-16T13:26:16;14.40;99.90
74901;DHT22;63461;51.416;6.758;2024-02-16T13:28:42;14.40;99.90
74901;DHT22;63461;51.416;6.758;2024-02-16T13:31:08;14.40;99.90
74901;DHT22;63461;51.416;6.758;2024-02-16T13:33:37;14.40;99.90
74901;DHT22;63461;51.416;6.758;2024-02-16T13:36:05;14.40;99.90
74901;DHT22;63461;51.416;6.758;2024-02-16T13:38:31;14.40;99.90
74901;DHT22;63461;51.416;6.758;2024-02-16T13:40:57;14.30;99.90
74901;DHT22;63461;51.416;6.758;2024-02-16T13:43:23;14.30;99.90
74901;DHT22;63461;51.416;6.758;2024-02-16T13:45:51;14.20;99.90
74901;DHT22;63461;51.416;6.758;2024-02-16T13:48:17;14.20;99.90
74901;DHT22;63461;51.416;6.758;2024-02-16T13:50:47;14.20;99.90
74901;DHT22;63461;51.416;6.758;2024-02-16T13:53:14;14.20;99.90
74901;DHT22;63461;51.416;6.758;2024-02-16T13:55:42;14.20;99.90
74901;DHT22;63461;51.416;6.758;2024-02-16T13:58:10;14.20;99.90
74901;DHT22;63461;51.416;6.758;2024-02-16T14:00:37;14.10;99.90
74901;DHT22;63461;51.416;6.758;2024-02-16T14:03:04;14.10;99.90
74901;DHT22;63461;51.416;6.758;2024-02-16T14:05:31;14.10;99.90
74901;DHT22;63461;51.416;6.758;2024-02-16T14:07:57;14.10;99.90
74901;DHT22;63461;51.416;6.758;2024-02-16T14:10:23;14.00;99.90
74901;DHT22;63461;51.416;6.758;2024-02-16T14:12:48;14.00;99.90
74901;DHT22;63461;51.416;6.758;2024-02-16T14:15:14;14.00;99.90
74901;DHT22;63461;51.416;6.758;2024-02-16T14:17:42;13.90;99.90
74901;DHT22;63461;51.416;6.758;2024-02-16T14:20:09;13.90;99.90
74901;DHT22;63461;51.416;6.758;2024-02-16T14:22:35;13.90;99.90
74901;DHT22;63461;51.416;6.758;2024-02-16T14:25:01;13.90;99.90
74901;DHT22;63461;51.416;6.758;2024-02-16T14:27:27;13.90;99.90
74901;DHT22;63461;51.416;6.758;2024-02-16T14:29:52;13.90;99.90
74901;DHT22;63461;51.416;6.758;2024-02-16T14:32:19;13.90;99.90
74901;DHT22;63461;51.416;6.758;2024-02-16T14:34:45;13.90;99.90
74901;DHT22;63461;51.416;6.758;2024-02-16T14:37:11;13.90;99.90
74901;DHT22;63461;51.416;6.758;2024-02-16T14:39:37;13.80;99.90
74901;DHT22;63461;51.416;6.758;2024-02-16T14:42:03;13.70;99.90
74901;DHT22;63461;51.416;6.758;2024-02-16T14:44:28;13.80;99.90
74901;DHT22;63461;51.416;6.758;2024-02-16T14:46:54;13.80;99.90
74901;DHT22;63461;51.416;6.758;2024-02-16T14:49:20;13.70;99.90
74901;DHT22;63461;51.416;6.758;2024-02-16T14:51:47;13.80;99.90
74901;DHT22;63461;51.416;6.758;2024-02-16T14:54:13;13.70;99.90
74901;DHT22;63461;51.416;6.758;2024-02-16T14:56:39;13.80;99.90
74901;DHT22;63461;51.416;6.758;2024-02-16T14:59:05;13.70;99.90
74901;DHT22;63461;51.416;6.758;2024-02-16T15:01:31;13.60;99.90
74901;DHT22;63461;51.416;6.758;2024-02-16T15:03:57;13.70;99.90
74901;DHT22;63461;51.416;6.758;2024-02-16T15:06:25;13.70;99.90
74901;DHT22;63461;51.416;6.758;2024-02-16T15:08:51;13.70;99.90
74901;DHT22;63461;51.416;6.758;2024-02-16T15:11:16;13.60;99.90
74901;DHT22;63461;51.416;6.758;2024-02-16T15:13:43;13.60;99.90
74901;DHT22;63461;51.416;6.758;2024-02-16T15:16:08;13.70;99.90
74901;DHT22;63461;51.416;6.758;2024-02-16T15:18:35;13.60;99.90
74901;DHT22;63461;51.416;6.758;2024-02-16T15:21:01;13.70;99.90
74901;DHT22;63461;51.416;6.758;2024-02-16T15:23:27;13.70;99.90
74901;DHT22;63461;51.416;6.758;2024-02-16T15:25:53;13.70;99.90
74901;DHT22;63461;51.416;6.758;2024-02-16T15:28:18;13.80;99.90